Time;durP1;ratioP1;P1;durP2;ratioP2;P2;SDS_P1;SDS_P2;PMS_P1;PMS_P2;Temp;Humidity;BMP_temperature;BMP_pressure;BME280_temperature;BME280_humidity;BME280_pressure;Samples;Min_cycle;Max_cycle;Signal;HPM_P1;HPM_P2
2023/03/17 00:00:47;;;;;;;3.72;2.05;;;8.00;99.90;;;;;;5073391;28;20077;-75
2023/03/17 00:03:24;;;;;;;4.00;1.90;;;8.10;99.90;;;;;;5071628;28;20365;-75
2023/03/17 00:05:52;;;;;;;3.00;1.92;;;8.10;99.90;;;;;;5078909;28;20100;-75
2023/03/17 00:08:26;;;;;;;4.70;2.17;;;8.00;99.90;;;;;;5092581;28;20031;-75
2023/03/17 00:10:53;;;;;;;7.82;1.90;;;8.00;99.90;;;;;;5077341;28;20040;-74
2023/03/17 00:13:19;;;;;;;4.75;1.88;;;7.90;99.90;;;;;;5074236;28;20024;-77
2023/03/17 00:15:52;;;;;;;3.40;1.70;;;8.00;99.90;;;;;;5093217;28;20023;-74
2023/03/17 00:18:19;;;;;;;3.47;2.08;;;7.90;99.90;;;;;;5091517;28;20028;-75
2023/03/17 00:20:46;;;;;;;2.78;1.88;;;7.90;99.90;;;;;;5092191;28;20032;-75
2023/03/17 00:23:16;;;;;;;2.90;2.17;;;7.90;99.90;;;;;;5091082;28;20037;-73
2023/03/17 00:25:43;;;;;;;3.45;2.00;;;7.90;99.90;;;;;;5071675;28;20020;-74
2023/03/17 00:28:24;;;;;;;3.58;1.80;;;7.80;99.90;;;;;;5071426;28;20023;-76
2023/03/17 00:30:54;;;;;;;3.15;1.77;;;7.80;99.90;;;;;;5072048;28;20119;-75
2023/03/17 00:33:25;;;;;;;5.60;2.17;;;7.80;99.90;;;;;;5091221;28;20115;-76
2023/03/17 00:35:51;;;;;;;3.67;1.90;;;7.70;99.90;;;;;;5084667;28;20131;-75
2023/03/17 00:38:19;;;;;;;3.85;1.90;;;7.70;99.90;;;;;;5071066;28;20059;-77
2023/03/17 00:40:45;;;;;;;3.28;1.92;;;7.70;99.90;;;;;;5071980;28;20016;-76
2023/03/17 00:43:12;;;;;;;4.80;2.03;;;7.70;99.90;;;;;;5071228;28;20450;-76
2023/03/17 00:45:39;;;;;;;4.00;2.00;;;7.60;99.90;;;;;;5071497;28;20021;-76
2023/03/17 00:48:14;;;;;;;4.97;2.45;;;7.60;99.90;;;;;;5080225;28;20116;-82
2023/03/17 00:50:41;;;;;;;4.15;1.98;;;7.60;99.90;;;;;;5093192;28;20039;-75
2023/03/17 00:53:14;;;;;;;7.68;2.58;;;7.60;99.90;;;;;;5088256;28;20114;-79
2023/03/17 00:55:41;;;;;;;3.28;2.20;;;7.70;99.90;;;;;;5087182;28;20094;-75
2023/03/17 00:58:18;;;;;;;3.90;2.00;;;7.70;99.90;;;;;;5081440;28;20024;-84
2023/03/17 01:00:44;;;;;;;3.60;2.38;;;7.70;99.90;;;;;;5090702;28;20031;-74
2023/03/17 01:03:11;;;;;;;3.40;2.08;;;7.80;99.90;;;;;;5074799;28;20024;-74
2023/03/17 01:05:38;;;;;;;4.53;2.30;;;7.80;99.90;;;;;;5091991;28;20027;-75
2023/03/17 01:08:04;;;;;;;6.85;2.17;;;7.70;99.90;;;;;;5082085;28;20425;-78
2023/03/17 01:10:31;;;;;;;2.80;2.17;;;7.70;99.90;;;;;;5070930;28;20033;-73
2023/03/17 01:12:58;;;;;;;3.17;2.25;;;7.70;99.90;;;;;;5071412;28;20029;-73
2023/03/17 01:15:27;;;;;;;5.35;2.42;;;7.60;99.90;;;;;;5074407;28;20572;-75
2023/03/17 01:17:53;;;;;;;5.13;2.55;;;7.70;99.90;;;;;;5092617;28;20043;-73
2023/03/17 01:20:23;;;;;;;8.18;2.22;;;7.60;99.90;;;;;;5095151;28;20457;-74
2023/03/17 01:22:49;;;;;;;3.83;2.05;;;7.70;99.90;;;;;;5090217;28;20012;-72
2023/03/17 01:25:16;;;;;;;5.22;2.35;;;7.70;99.90;;;;;;5087008;28;20020;-74
2023/03/17 01:27:42;;;;;;;4.53;2.30;;;7.70;99.90;;;;;;5085213;28;20016;-78
2023/03/17 01:30:22;;;;;;;3.38;2.15;;;7.70;99.90;;;;;;5090386;28;20365;-73
2023/03/17 01:32:48;;;;;;;4.35;2.10;;;7.70;99.90;;;;;;5074680;28;20563;-73
2023/03/17 01:35:15;;;;;;;2.88;2.03;;;7.60;99.90;;;;;;5080286;28;20350;-73
2023/03/17 01:37:41;;;;;;;3.92;2.25;;;7.60;99.90;;;;;;5093645;28;20063;-74
2023/03/17 01:40:11;;;;;;;3.35;2.22;;;7.50;99.90;;;;;;5092441;28;20066;-82
2023/03/17 01:42:38;;;;;;;7.15;2.08;;;7.40;99.90;;;;;;5073142;28;20027;-73
2023/03/17 01:45:45;;;;;;;3.25;1.95;;;7.40;99.90;;;;;;5076354;28;20024;-73
2023/03/17 01:48:12;;;;;;;4.50;1.90;;;7.40;99.90;;;;;;5075831;28;20437;-73
2023/03/17 01:50:37;;;;;;;4.13;2.17;;;7.30;99.90;;;;;;5075048;28;20033;-73
2023/03/17 01:53:04;;;;;;;2.38;1.90;;;7.40;99.90;;;;;;5075204;28;20028;-73
2023/03/17 01:55:30;;;;;;;3.35;1.92;;;7.30;99.90;;;;;;5076204;28;20161;-73
2023/03/17 01:57:56;;;;;;;3.53;2.15;;;7.30;99.90;;;;;;5074996;28;20025;-73
2023/03/17 02:00:25;;;;;;;3.58;2.00;;;7.20;99.90;;;;;;5075308;28;20468;-73
2023/03/17 02:02:54;;;;;;;4.53;2.65;;;7.20;99.90;;;;;;5076420;28;20362;-73
2023/03/17 02:05:31;;;;;;;2.78;1.80;;;7.10;99.90;;;;;;5074376;28;20346;-73
2023/03/17 02:07:57;;;;;;;4.53;2.00;;;7.10;99.90;;;;;;5074902;28;20030;-73
2023/03/17 02:10:24;;;;;;;3.42;2.08;;;7.10;99.90;;;;;;5075408;28;20024;-73
2023/03/17 02:12:54;;;;;;;3.53;2.05;;;7.10;99.90;;;;;;5074674;28;20453;-74
2023/03/17 02:15:21;;;;;;;3.83;2.17;;;7.10;99.90;;;;;;5073896;28;20021;-73
2023/03/17 02:17:48;;;;;;;3.13;1.85;;;7.00;99.90;;;;;;5075723;28;20369;-73
2023/03/17 02:20:17;;;;;;;3.80;1.90;;;7.00;99.90;;;;;;5073963;28;20039;-74
2023/03/17 02:22:51;;;;;;;7.20;2.13;;;7.00;99.90;;;;;;5075780;28;20021;-73
2023/03/17 02:25:18;;;;;;;3.27;1.80;;;7.00;99.90;;;;;;5075380;28;20019;-74
2023/03/17 02:27:48;;;;;;;4.68;2.50;;;6.90;99.90;;;;;;5074336;28;20055;-73
2023/03/17 02:30:17;;;;;;;3.80;2.30;;;6.90;99.90;;;;;;5074984;28;20032;-75
2023/03/17 02:32:43;;;;;;;3.90;2.17;;;6.90;99.90;;;;;;5074110;28;20024;-73
2023/03/17 02:35:09;;;;;;;3.13;2.13;;;6.80;99.90;;;;;;5075612;28;20111;-84
2023/03/17 02:37:35;;;;;;;2.93;1.90;;;6.80;99.90;;;;;;5073853;28;20082;-73
2023/03/17 02:40:01;;;;;;;4.27;2.07;;;6.80;99.90;;;;;;5073999;28;20471;-73
2023/03/17 02:42:27;;;;;;;3.47;2.00;;;6.70;99.90;;;;;;5073725;28;20016;-73
2023/03/17 02:44:53;;;;;;;3.37;2.03;;;6.70;99.90;;;;;;5074316;28;20043;-73
2023/03/17 02:47:20;;;;;;;5.57;2.20;;;6.70;99.90;;;;;;5074969;28;20425;-74
2023/03/17 02:49:46;;;;;;;3.83;2.00;;;6.60;99.90;;;;;;5075140;28;20061;-73
2023/03/17 02:52:12;;;;;;;3.77;2.13;;;6.50;99.90;;;;;;5073631;28;20446;-77
2023/03/17 02:54:37;;;;;;;3.00;1.60;;;6.50;99.90;;;;;;5073429;28;20047;-73
2023/03/17 02:57:03;;;;;;;3.47;2.00;;;6.50;99.90;;;;;;5073717;28;20024;-73
2023/03/17 02:59:29;;;;;;;3.30;1.83;;;6.40;99.90;;;;;;5074123;28;20531;-74
2023/03/17 03:01:55;;;;;;;5.30;2.03;;;6.40;99.90;;;;;;5073465;28;20157;-73
2023/03/17 03:04:21;;;;;;;4.60;2.07;;;6.40;99.90;;;;;;5072736;28;20392;-73
2023/03/17 03:06:47;;;;;;;3.47;1.80;;;6.30;99.90;;;;;;5074893;28;20074;-73
2023/03/17 03:09:13;;;;;;;3.53;1.87;;;6.30;99.90;;;;;;5073123;28;20024;-87
2023/03/17 03:11:39;;;;;;;4.00;2.10;;;6.30;99.90;;;;;;5073652;28;20050;-74
2023/03/17 03:14:06;;;;;;;4.27;2.10;;;6.20;99.90;;;;;;5073596;28;20012;-74
2023/03/17 03:16:32;;;;;;;3.27;1.80;;;6.20;99.90;;;;;;5072726;28;20020;-74
2023/03/17 03:18:58;;;;;;;5.43;2.30;;;6.10;99.90;;;;;;5074081;28;20021;-74
2023/03/17 03:21:24;;;;;;;3.63;2.20;;;6.10;99.90;;;;;;5072787;28;20389;-74
2023/03/17 03:23:49;;;;;;;4.97;2.10;;;6.10;99.90;;;;;;5073307;28;20016;-74
2023/03/17 03:26:15;;;;;;;2.97;1.80;;;6.10;99.90;;;;;;5073723;28;20110;-74
2023/03/17 03:28:41;;;;;;;3.77;1.80;;;6.00;99.90;;;;;;5073304;28;20111;-73
2023/03/17 03:31:07;;;;;;;2.87;1.83;;;6.00;99.90;;;;;;5074243;28;20037;-73
2023/03/17 03:33:33;;;;;;;3.70;2.00;;;5.90;99.90;;;;;;5072467;28;20016;-73
2023/03/17 03:35:59;;;;;;;2.07;1.60;;;5.80;99.90;;;;;;5074182;28;20024;-73
2023/03/17 03:38:25;;;;;;;3.50;1.80;;;5.80;99.90;;;;;;5071971;28;20040;-73
2023/03/17 03:40:51;;;;;;;7.70;3.80;;;5.80;99.90;;;;;;5072749;28;20025;-73
2023/03/17 03:43:17;;;;;;;3.43;2.53;;;5.80;99.90;;;;;;5073013;28;20024;-74
2023/03/17 03:45:43;;;;;;;3.63;2.03;;;5.80;99.90;;;;;;5072734;28;20365;-73
2023/03/17 03:48:08;;;;;;;5.20;2.20;;;5.70;99.90;;;;;;5072819;28;20025;-74
2023/03/17 03:50:34;;;;;;;3.67;2.27;;;5.70;99.90;;;;;;5071787;28;20164;-73
2023/03/17 03:52:59;;;;;;;3.10;1.80;;;5.70;99.90;;;;;;5073606;28;20111;-74
2023/03/17 03:55:25;;;;;;;2.50;1.90;;;5.70;99.90;;;;;;5071796;28;20434;-74
2023/03/17 03:57:51;;;;;;;4.83;3.03;;;5.60;99.90;;;;;;5073622;28;20028;-74
2023/03/17 04:00:17;;;;;;;4.20;2.33;;;5.60;99.90;;;;;;5072134;28;20024;-82
2023/03/17 04:02:46;;;;;;;3.53;2.00;;;5.50;99.90;;;;;;5072554;28;20120;-74
2023/03/17 04:05:14;;;;;;;4.30;2.13;;;5.50;99.90;;;;;;5073833;28;20020;-74
2023/03/17 04:07:40;;;;;;;4.30;2.40;;;5.50;99.90;;;;;;5073540;28;20013;-74
2023/03/17 04:10:07;;;;;;;2.77;1.90;;;5.50;99.90;;;;;;5073574;28;20031;-74
2023/03/17 04:12:33;;;;;;;4.67;2.30;;;5.30;99.90;;;;;;5073269;28;20021;-74
2023/03/17 04:14:59;;;;;;;3.80;2.00;;;5.30;99.90;;;;;;5072124;28;20397;-73
2023/03/17 04:17:24;;;;;;;6.87;2.30;;;5.20;99.90;;;;;;5071932;28;20119;-74
2023/03/17 04:19:51;;;;;;;3.50;1.87;;;5.20;99.90;;;;;;5073657;28;20029;-73
2023/03/17 04:22:16;;;;;;;3.17;1.90;;;5.10;99.90;;;;;;5071713;28;20024;-83
2023/03/17 04:24:42;;;;;;;3.97;1.80;;;5.10;99.90;;;;;;5071961;28;20027;-73
2023/03/17 04:27:08;;;;;;;4.83;2.07;;;5.10;99.90;;;;;;5071886;28;20025;-73
2023/03/17 04:29:35;;;;;;;2.43;1.80;;;5.20;99.90;;;;;;5071534;28;20043;-73
2023/03/17 04:32:01;;;;;;;5.57;2.33;;;5.10;99.90;;;;;;5072315;28;20021;-73
2023/03/17 04:34:27;;;;;;;5.23;2.07;;;5.00;99.90;;;;;;5071649;28;20026;-74
2023/03/17 04:36:52;;;;;;;4.17;2.00;;;5.00;99.90;;;;;;5073248;28;20045;-73
2023/03/17 04:39:18;;;;;;;4.87;1.90;;;4.90;99.90;;;;;;5072975;28;20016;-84
2023/03/17 04:41:45;;;;;;;4.53;1.73;;;4.90;99.90;;;;;;5071910;28;20048;-73
2023/03/17 04:44:11;;;;;;;4.27;1.80;;;4.90;99.90;;;;;;5071903;28;20115;-74
2023/03/17 04:46:37;;;;;;;4.43;1.90;;;4.90;99.90;;;;;;5071412;28;20116;-75
2023/03/17 04:49:03;;;;;;;3.33;2.00;;;4.90;99.90;;;;;;5073147;28;20024;-74
2023/03/17 04:51:28;;;;;;;4.77;1.90;;;4.80;99.90;;;;;;5071280;28;20417;-74
2023/03/17 04:53:54;;;;;;;2.40;1.73;;;4.80;99.90;;;;;;5071002;28;20036;-73
2023/03/17 04:56:20;;;;;;;4.37;1.83;;;4.80;99.90;;;;;;5070904;28;20357;-85
2023/03/17 04:58:46;;;;;;;4.93;2.43;;;4.80;99.90;;;;;;5071541;28;20115;-73
2023/03/17 05:01:12;;;;;;;3.77;2.17;;;4.80;99.90;;;;;;5072923;28;20039;-74
2023/03/17 05:03:37;;;;;;;4.27;2.00;;;4.80;99.90;;;;;;5071218;28;20051;-73
2023/03/17 05:06:03;;;;;;;4.63;2.10;;;4.80;99.90;;;;;;5071709;28;20020;-73
2023/03/17 05:08:29;;;;;;;3.33;1.70;;;4.80;99.90;;;;;;5071203;28;20369;-74
2023/03/17 05:10:56;;;;;;;3.23;1.73;;;4.80;99.90;;;;;;5071269;28;20035;-73
2023/03/17 05:13:22;;;;;;;2.77;1.70;;;4.80;99.90;;;;;;5072123;28;20122;-76
2023/03/17 05:15:49;;;;;;;5.47;2.10;;;4.80;99.90;;;;;;5071712;28;20461;-73
2023/03/17 05:18:15;;;;;;;6.83;2.13;;;4.70;99.90;;;;;;5072585;28;20480;-73
2023/03/17 05:20:41;;;;;;;2.70;1.67;;;4.70;99.90;;;;;;5070852;28;20040;-73
2023/03/17 05:23:06;;;;;;;4.60;2.67;;;4.70;99.90;;;;;;5071392;28;20021;-74
2023/03/17 05:25:32;;;;;;;3.97;2.40;;;4.60;99.90;;;;;;5071025;28;20060;-74
2023/03/17 05:27:58;;;;;;;3.87;2.23;;;4.60;99.90;;;;;;5072586;28;20074;-74
2023/03/17 05:30:24;;;;;;;3.50;1.97;;;4.50;99.90;;;;;;5070789;28;20032;-74
2023/03/17 05:32:50;;;;;;;5.73;2.00;;;4.50;99.90;;;;;;5072486;28;20032;-74
2023/03/17 05:35:16;;;;;;;4.33;2.37;;;4.50;99.90;;;;;;5071196;28;20024;-73
2023/03/17 05:37:42;;;;;;;5.80;2.33;;;4.50;99.90;;;;;;5070622;28;20895;-74
2023/03/17 05:40:09;;;;;;;5.23;2.80;;;4.50;99.90;;;;;;5071171;28;20024;-74
2023/03/17 05:42:35;;;;;;;4.40;2.40;;;4.50;99.90;;;;;;5070567;28;20016;-74
2023/03/17 05:45:01;;;;;;;3.83;2.20;;;4.50;99.90;;;;;;5072506;28;20338;-74
2023/03/17 05:47:27;;;;;;;4.23;2.00;;;4.40;99.90;;;;;;5070523;28;20029;-74
2023/03/17 05:49:52;;;;;;;5.07;2.50;;;4.50;99.90;;;;;;5071177;28;20040;-74
2023/03/17 05:52:18;;;;;;;3.33;2.03;;;4.50;99.90;;;;;;5072638;28;20020;-73
2023/03/17 05:54:46;;;;;;;3.33;2.27;;;4.50;99.90;;;;;;5070749;28;20029;-74
2023/03/17 05:57:12;;;;;;;4.70;2.23;;;4.40;99.90;;;;;;5072484;28;20023;-74
2023/03/17 05:59:37;;;;;;;4.27;2.50;;;4.30;99.90;;;;;;5070838;28;20021;-74
2023/03/17 06:02:03;;;;;;;6.87;2.43;;;4.20;99.90;;;;;;5071014;28;20016;-74
2023/03/17 06:04:29;;;;;;;4.53;2.17;;;4.30;99.90;;;;;;5070181;28;20025;-74
2023/03/17 06:06:54;;;;;;;4.07;1.90;;;4.30;99.90;;;;;;5074513;28;20454;-73
2023/03/17 06:09:20;;;;;;;3.33;2.27;;;4.30;99.90;;;;;;5075937;28;20020;-75
2023/03/17 06:11:45;;;;;;;3.37;2.00;;;4.30;99.90;;;;;;5074308;28;20025;-73
2023/03/17 06:14:12;;;;;;;3.60;2.20;;;4.30;99.90;;;;;;5074721;28;20023;-73
2023/03/17 06:16:37;;;;;;;4.17;2.10;;;4.40;99.90;;;;;;5075320;28;20111;-74
2023/03/17 06:19:03;;;;;;;4.70;2.20;;;4.40;99.90;;;;;;5074803;28;20525;-73
2023/03/17 06:21:28;;;;;;;4.97;2.33;;;4.40;99.90;;;;;;5075255;28;20032;-74
2023/03/17 06:23:54;;;;;;;3.83;2.20;;;4.40;99.90;;;;;;5074277;28;20064;-74
2023/03/17 06:26:20;;;;;;;3.93;2.40;;;4.40;99.90;;;;;;5075736;28;20048;-74
2023/03/17 06:28:45;;;;;;;3.40;2.43;;;4.40;99.90;;;;;;5073735;28;20040;-74
2023/03/17 06:31:11;;;;;;;5.47;2.87;;;4.40;99.90;;;;;;5074309;28;20024;-73
2023/03/17 06:33:37;;;;;;;5.07;3.03;;;4.40;99.90;;;;;;5074083;28;20091;-74
2023/03/17 06:36:02;;;;;;;7.07;3.10;;;4.40;99.90;;;;;;5075507;28;20024;-73
2023/03/17 06:38:28;;;;;;;4.63;2.97;;;4.50;99.90;;;;;;5074176;28;20021;-75
2023/03/17 06:40:53;;;;;;;8.17;2.67;;;4.50;99.90;;;;;;5074282;28;20120;-73
2023/03/17 06:43:21;;;;;;;8.77;3.63;;;4.50;99.90;;;;;;5075526;28;20021;-74
2023/03/17 06:45:46;;;;;;;11.13;3.63;;;4.60;99.90;;;;;;5073297;28;20503;-74
2023/03/17 06:48:12;;;;;;;8.10;3.80;;;4.70;99.90;;;;;;5074842;28;20033;-74
2023/03/17 06:50:37;;;;;;;6.27;4.10;;;4.80;99.90;;;;;;5074072;28;20111;-74
2023/03/17 06:53:03;;;;;;;7.13;3.40;;;4.90;99.90;;;;;;5073502;28;20616;-73
2023/03/17 06:55:29;;;;;;;5.70;3.90;;;5.10;99.90;;;;;;5073516;28;20074;-75
2023/03/17 06:57:54;;;;;;;11.23;4.40;;;5.10;99.90;;;;;;5073828;28;20021;-74
2023/03/17 07:00:21;;;;;;;7.40;4.03;;;5.20;99.90;;;;;;5073865;28;20115;-74
2023/03/17 07:02:48;;;;;;;6.97;3.93;;;5.30;99.90;;;;;;5074602;28;20509;-74
2023/03/17 07:05:14;;;;;;;11.57;4.87;;;5.30;99.90;;;;;;5073998;28;20047;-74
2023/03/17 07:07:40;;;;;;;9.87;4.07;;;5.40;99.90;;;;;;5074659;28;20461;-74
2023/03/17 07:10:06;;;;;;;7.37;3.73;;;5.40;99.90;;;;;;5073774;28;20115;-74
2023/03/17 07:12:36;;;;;;;8.73;4.30;;;5.40;99.90;;;;;;5072894;28;20028;-82
2023/03/17 07:15:03;;;;;;;11.30;4.13;;;5.50;99.90;;;;;;5075296;28;20540;-74
2023/03/17 07:17:29;;;;;;;7.07;3.77;;;5.60;99.90;;;;;;5087150;28;20020;-76
2023/03/17 07:19:54;;;;;;;7.37;3.60;;;5.60;99.90;;;;;;5074217;28;20035;-74
2023/03/17 07:22:20;;;;;;;8.93;3.40;;;5.60;99.90;;;;;;5073092;28;20021;-74
2023/03/17 07:24:47;;;;;;;6.50;3.87;;;5.70;99.90;;;;;;5072792;28;20074;-74
2023/03/17 07:27:16;;;;;;;7.87;3.80;;;5.80;99.90;;;;;;5074883;28;21474;-74
2023/03/17 07:29:41;;;;;;;7.20;3.57;;;5.80;99.90;;;;;;5074066;28;20033;-75
2023/03/17 07:32:08;;;;;;;7.53;4.40;;;5.90;99.90;;;;;;5072746;28;20028;-75
2023/03/17 07:34:34;;;;;;;6.23;3.77;;;6.00;99.90;;;;;;5084084;28;20115;-74
2023/03/17 07:37:01;;;;;;;11.97;3.90;;;6.10;99.90;;;;;;5077048;28;20045;-75
2023/03/17 07:39:27;;;;;;;7.57;4.00;;;6.10;99.90;;;;;;5076647;28;20028;-85
2023/03/17 07:41:53;;;;;;;9.93;4.17;;;6.20;99.90;;;;;;5092926;28;20020;-74
2023/03/17 07:44:21;;;;;;;11.43;3.90;;;6.30;99.90;;;;;;5081960;28;20362;-74
2023/03/17 07:46:47;;;;;;;6.93;3.97;;;6.40;99.90;;;;;;5090799;28;20028;-74
2023/03/17 07:49:13;;;;;;;9.03;3.80;;;6.50;99.90;;;;;;5081946;28;20546;-77
2023/03/17 07:51:41;;;;;;;6.20;3.70;;;6.50;99.90;;;;;;5087600;28;20372;-73
2023/03/17 07:54:08;;;;;;;7.70;3.80;;;6.60;99.90;;;;;;5082102;28;20016;-73
2023/03/17 07:56:34;;;;;;;9.23;3.83;;;6.70;99.90;;;;;;5081428;28;20024;-74
2023/03/17 07:59:00;;;;;;;9.20;3.60;;;6.80;99.90;;;;;;5072915;28;20029;-73
2023/03/17 08:01:26;;;;;;;9.63;3.57;;;6.80;99.90;;;;;;5093020;28;20035;-81
2023/03/17 08:03:52;;;;;;;8.77;4.03;;;6.90;99.90;;;;;;5092376;28;20022;-73
2023/03/17 08:06:18;;;;;;;6.27;3.47;;;6.90;99.90;;;;;;5092830;28;20020;-73
2023/03/17 08:08:44;;;;;;;8.70;3.60;;;7.00;99.90;;;;;;5093563;28;20028;-74
2023/03/17 08:11:11;;;;;;;6.60;3.40;;;7.10;99.90;;;;;;5093805;28;20024;-73
2023/03/17 08:13:36;;;;;;;5.67;3.23;;;7.10;99.90;;;;;;5085036;28;20032;-73
2023/03/17 08:16:02;;;;;;;4.93;2.97;;;7.10;99.90;;;;;;5077534;28;20020;-74
2023/03/17 08:18:28;;;;;;;6.50;3.70;;;7.20;99.90;;;;;;5085312;28;20208;-85
2023/03/17 08:20:53;;;;;;;9.80;3.47;;;7.20;99.90;;;;;;5079951;28;20032;-75
2023/03/17 08:23:20;;;;;;;11.83;3.67;;;7.20;99.90;;;;;;5079925;28;20112;-74
2023/03/17 08:25:46;;;;;;;8.00;3.77;;;7.20;99.90;;;;;;5072048;28;20025;-75
2023/03/17 08:28:14;;;;;;;6.17;3.30;;;7.20;99.90;;;;;;5072868;28;20077;-80
2023/03/17 08:30:41;;;;;;;6.73;3.23;;;7.20;99.90;;;;;;5071915;28;20457;-75
2023/03/17 08:33:07;;;;;;;5.17;3.30;;;7.20;99.90;;;;;;5080062;28;20031;-76
2023/03/17 08:35:34;;;;;;;6.77;3.33;;;7.30;99.90;;;;;;5088212;28;20062;-75
2023/03/17 08:38:00;;;;;;;7.23;3.47;;;7.40;99.90;;;;;;5079080;28;20044;-74
2023/03/17 08:40:26;;;;;;;6.23;3.30;;;7.50;99.90;;;;;;5078600;28;20021;-77
2023/03/17 08:42:52;;;;;;;11.27;3.90;;;7.70;99.90;;;;;;5078817;28;20346;-75
2023/03/17 08:45:18;;;;;;;7.57;3.58;;;7.70;99.90;;;;;;5090490;28;20017;-74
2023/03/17 08:47:45;;;;;;;4.15;3.22;;;7.80;99.90;;;;;;5087062;28;20082;-74
2023/03/17 08:50:17;;;;;;;7.47;3.50;;;7.90;99.90;;;;;;5072086;28;20543;-76
2023/03/17 08:52:43;;;;;;;8.68;3.78;;;7.90;99.90;;;;;;5072008;28;20107;-74
2023/03/17 08:55:10;;;;;;;7.22;3.63;;;8.00;99.90;;;;;;5071447;28;20060;-75
2023/03/17 08:57:36;;;;;;;4.80;3.38;;;8.00;99.90;;;;;;5071851;28;20037;-75
2023/03/17 09:00:09;;;;;;;7.07;3.35;;;8.10;99.90;;;;;;5082618;28;20058;-77
2023/03/17 09:02:36;;;;;;;9.85;4.15;;;8.10;99.90;;;;;;5085474;28;20016;-75
2023/03/17 09:05:02;;;;;;;6.80;3.33;;;8.20;99.90;;;;;;5072490;28;20035;-74
2023/03/17 09:07:28;;;;;;;6.97;3.63;;;8.30;99.90;;;;;;5085361;28;20456;-81
2023/03/17 09:09:53;;;;;;;5.53;3.22;;;8.30;99.90;;;;;;5078539;28;20065;-73
2023/03/17 09:12:19;;;;;;;7.70;3.67;;;8.40;99.90;;;;;;5081326;28;20017;-74
2023/03/17 09:14:45;;;;;;;6.68;3.28;;;8.60;99.90;;;;;;5085875;28;20020;-74
2023/03/17 09:17:13;;;;;;;6.32;3.42;;;8.70;99.90;;;;;;5092430;28;20480;-75
2023/03/17 09:19:39;;;;;;;11.25;3.67;;;8.70;99.90;;;;;;5091115;28;20028;-75
2023/03/17 09:22:05;;;;;;;6.78;3.63;;;8.90;99.90;;;;;;5072479;28;20043;-75
2023/03/17 09:24:31;;;;;;;6.85;3.65;;;8.90;99.90;;;;;;5072015;28;20025;-75
2023/03/17 09:26:58;;;;;;;5.43;3.28;;;9.00;99.90;;;;;;5087417;28;20027;-74
2023/03/17 09:29:25;;;;;;;6.72;3.60;;;9.30;99.90;;;;;;5088764;28;20043;-74
2023/03/17 09:31:51;;;;;;;5.75;3.00;;;9.40;99.90;;;;;;5090158;28;20020;-77
2023/03/17 09:34:17;;;;;;;5.63;3.55;;;9.50;99.90;;;;;;5086946;28;20047;-75
2023/03/17 09:36:42;;;;;;;9.15;3.55;;;9.60;99.90;;;;;;5090182;28;20071;-74
2023/03/17 09:39:08;;;;;;;7.63;3.33;;;9.70;99.90;;;;;;5089338;28;20024;-76
2023/03/17 09:41:48;;;;;;;6.78;3.33;;;9.80;99.90;;;;;;5095324;28;20487;-76
2023/03/17 09:44:33;;;;;;;8.63;3.60;;;9.80;99.90;;;;;;5085419;28;20037;-76
2023/03/17 09:46:58;;;;;;;9.38;2.97;;;9.80;99.90;;;;;;5090335;28;20080;-75
2023/03/17 09:49:36;;;;;;;5.28;3.25;;;9.90;99.90;;;;;;5077474;28;20036;-75
2023/03/17 09:52:02;;;;;;;6.18;3.38;;;10.00;99.90;;;;;;5072825;28;20054;-75
2023/03/17 09:54:35;;;;;;;7.55;3.17;;;9.90;99.90;;;;;;5094507;28;20059;-80
2023/03/17 09:57:17;;;;;;;8.43;3.67;;;9.80;99.90;;;;;;5077845;28;20469;-75
2023/03/17 09:59:46;;;;;;;9.63;3.85;;;9.90;99.90;;;;;;5079548;28;20017;-75
2023/03/17 10:02:18;;;;;;;6.05;3.25;;;9.90;99.90;;;;;;5083523;28;20410;-74
2023/03/17 10:04:45;;;;;;;;;;;10.00;99.90;;;;;;5082520;28;20110;-75
2023/03/17 10:07:15;;;;;;;7.97;3.40;;;10.00;99.90;;;;;;5094784;28;19904;-75
2023/03/17 10:09:59;;;;;;;10.63;3.47;;;10.00;99.90;;;;;;5090534;28;20060;-75
2023/03/17 10:13:05;;;;;;;6.32;3.67;;;10.20;99.90;;;;;;5075695;28;20048;-74
2023/03/17 10:15:42;;;;;;;5.63;3.42;;;10.30;99.90;;;;;;5093852;28;20367;-77
2023/03/17 10:18:11;;;;;;;4.43;3.00;;;10.40;99.90;;;;;;5094112;28;20020;-76
2023/03/17 10:20:45;;;;;;;7.53;3.28;;;10.50;99.90;;;;;;5084486;28;20029;-75
2023/03/17 10:23:15;;;;;;;6.55;2.70;;;10.50;99.90;;;;;;5089856;28;20471;-75
2023/03/17 10:25:41;;;;;;;7.22;2.88;;;10.70;99.90;;;;;;5089007;28;20048;-75
2023/03/17 10:28:27;;;;;;;7.38;3.20;;;10.90;99.90;;;;;;5075652;28;20027;-79
2023/03/17 10:31:13;;;;;;;8.35;3.00;;;11.10;99.90;;;;;;5089864;28;20028;-74
2023/03/17 10:33:39;;;;;;;5.43;2.80;;;11.40;99.80;;;;;;5093566;28;20441;-75
2023/03/17 10:36:09;;;;;;;6.22;2.88;;;11.70;99.10;;;;;;5085596;28;20025;-73
2023/03/17 10:38:35;;;;;;;8.40;3.65;;;11.90;98.10;;;;;;5075921;28;20020;-74
2023/03/17 10:41:12;;;;;;;6.25;2.95;;;11.90;98.30;;;;;;5075334;28;20046;-73
2023/03/17 10:43:46;;;;;;;5.30;2.78;;;12.00;97.80;;;;;;5073547;28;20115;-74
2023/03/17 10:46:25;;;;;;;5.75;2.85;;;12.00;97.90;;;;;;5075071;28;20039;-75
2023/03/17 10:49:17;;;;;;;4.75;2.65;;;12.10;98.20;;;;;;5074333;28;20123;-75
2023/03/17 10:51:45;;;;;;;6.55;3.28;;;12.30;96.80;;;;;;5068272;28;20058;-74
2023/03/17 10:54:17;;;;;;;5.50;2.70;;;12.40;95.60;;;;;;5083544;28;20028;-75
2023/03/17 10:56:45;;;;;;;;;;;12.50;95.00;;;;;;5093836;28;20062;-75
2023/03/17 10:59:24;;;;;;;4.60;2.90;;;12.60;95.00;;;;;;5094448;28;20015;-75
2023/03/17 11:01:53;;;;;;;4.40;2.83;;;12.60;95.60;;;;;;5081783;28;20109;-74
2023/03/17 11:04:38;;;;;;;7.15;2.92;;;12.70;95.60;;;;;;5085206;28;20553;-75
2023/03/17 11:07:25;;;;;;;5.50;2.70;;;12.80;95.20;;;;;;5073384;28;20021;-74
2023/03/17 11:09:57;;;;;;;4.93;2.83;;;12.90;94.50;;;;;;5052913;28;20032;-74
2023/03/17 11:12:25;;;;;;;;;;;13.10;94.70;;;;;;5073483;28;20024;-74
2023/03/17 11:14:58;;;;;;;4.70;2.80;;;13.30;93.40;;;;;;5084705;28;19907;-74
2023/03/17 11:17:53;;;;;;;4.28;2.63;;;13.30;94.10;;;;;;5074229;28;20052;-73
2023/03/17 11:20:48;;;;;;;4.90;2.65;;;13.30;94.00;;;;;;5075204;28;20477;-74
2023/03/17 11:23:43;;;;;;;7.53;2.85;;;13.20;94.50;;;;;;5074255;28;20342;-73
2023/03/17 11:26:30;;;;;;;4.22;2.38;;;13.20;93.80;;;;;;5074297;28;20024;-76
2023/03/17 11:29:21;;;;;;;5.55;2.60;;;13.20;94.60;;;;;;5072876;28;20085;-73
2023/03/17 11:32:09;;;;;;;6.97;2.28;;;13.20;94.40;;;;;;5073508;28;20339;-74
2023/03/17 11:34:44;;;;;;;8.07;2.53;;;13.20;94.40;;;;;;5072555;28;20035;-74
2023/03/17 11:37:41;;;;;;;4.82;2.25;;;13.30;94.70;;;;;;5074185;28;20037;-74
2023/03/17 11:40:46;;;;;;;5.60;2.30;;;13.40;93.40;;;;;;5084135;28;20099;-74
2023/03/17 11:43:30;;;;;;;3.50;2.15;;;13.50;93.30;;;;;;5035234;28;20040;-74
2023/03/17 11:46:07;;;;;;;7.55;2.47;;;13.60;92.50;;;;;;5086799;28;20571;-74
2023/03/17 11:48:52;;;;;;;4.63;2.33;;;13.80;92.00;;;;;;5083925;28;20020;-78
2023/03/17 11:51:29;;;;;;;5.35;3.05;;;13.90;92.50;;;;;;5075600;28;20093;-75
2023/03/17 11:54:13;;;;;;;7.30;2.78;;;14.00;92.10;;;;;;5087521;28;20019;-74
2023/03/17 11:56:50;;;;;;;4.55;2.20;;;14.10;91.90;;;;;;5090508;28;20024;-74
2023/03/17 11:59:46;;;;;;;5.55;2.22;;;14.30;91.10;;;;;;5087281;28;20020;-74
2023/03/17 12:02:39;;;;;;;4.00;2.30;;;14.40;90.40;;;;;;5072192;28;20021;-74
2023/03/17 12:05:30;;;;;;;4.60;1.83;;;14.50;90.70;;;;;;5077255;28;20032;-73
2023/03/17 12:08:22;;;;;;;3.05;1.90;;;14.50;90.60;;;;;;5068643;28;20032;-74
2023/03/17 12:10:54;;;;;;;5.65;2.33;;;14.60;90.20;;;;;;5076861;28;20082;-73
2023/03/17 12:13:38;;;;;;;3.65;1.95;;;14.50;90.60;;;;;;5080090;28;20025;-73
2023/03/17 12:16:16;;;;;;;3.58;1.85;;;14.60;90.40;;;;;;5073382;28;20024;-75
2023/03/17 12:18:56;;;;;;;4.90;1.95;;;14.60;90.60;;;;;;5085921;28;20028;-73
2023/03/17 12:21:49;;;;;;;5.65;2.22;;;14.70;90.60;;;;;;5078362;28;20119;-73
2023/03/17 12:24:28;;;;;;;6.30;2.00;;;14.70;90.50;;;;;;5080967;28;20013;-73
2023/03/17 12:26:57;;;;;;;8.10;2.15;;;14.80;90.00;;;;;;5072892;28;20448;-72
2023/03/17 12:29:52;;;;;;;5.45;2.35;;;14.90;89.40;;;;;;5056468;28;20103;-73
2023/03/17 12:32:26;;;;;;;3.85;1.73;;;15.00;88.10;;;;;;5080512;28;20033;-73
2023/03/17 12:34:57;;;;;;;7.03;2.13;;;15.00;88.90;;;;;;5079251;28;20536;-74
2023/03/17 12:37:27;;;;;;;7.97;2.33;;;15.00;90.00;;;;;;5085169;28;20036;-74
2023/03/17 12:39:57;;;;;;;5.60;2.38;;;15.10;90.70;;;;;;5076793;28;20398;-75
2023/03/17 12:42:34;;;;;;;3.88;2.40;;;15.20;90.80;;;;;;5089270;28;20773;-74
2023/03/17 12:45:10;;;;;;;5.90;2.47;;;15.20;90.60;;;;;;5076885;28;20094;-74
2023/03/17 12:48:00;;;;;;;5.82;2.50;;;15.20;89.40;;;;;;5060725;28;20028;-75
2023/03/17 12:51:04;;;;;;;4.03;1.90;;;15.40;89.90;;;;;;5091702;28;20365;-74
2023/03/17 12:53:36;;;;;;;3.83;1.95;;;15.60;87.60;;;;;;5071645;28;20016;-74
2023/03/17 12:56:09;;;;;;;;;;;15.70;87.40;;;;;;5080167;28;20077;-74
2023/03/17 12:58:38;;;;;;;3.50;1.88;;;15.90;85.90;;;;;;5083620;28;19930;-75
2023/03/17 13:01:13;;;;;;;3.30;2.08;;;16.00;87.40;;;;;;5089386;28;20579;-73
2023/03/17 13:03:56;;;;;;;4.70;2.00;;;16.20;86.10;;;;;;5051032;28;20048;-74
2023/03/17 13:06:23;;;;;;;4.45;2.08;;;16.60;83.70;;;;;;5088212;28;20023;-74
2023/03/17 13:08:51;;;;;;;3.70;2.17;;;16.70;82.50;;;;;;5075226;28;20027;-73